Time;durP1;ratioP1;P1;durP2;ratioP2;P2;SDS_P1;SDS_P2;PMS_P1;PMS_P2;Temp;Humidity;BMP_temperature;BMP_pressure;BME280_temperature;BME280_humidity;BME280_pressure;Samples;Min_cycle;Max_cycle;Signal;HPM_P1;HPM_P2
2022/03/30 00:06:08;;;;;;;;;39.00;32.50;;;;;;;;2;261076273;261076273;-83
2022/03/30 00:15:09;;;;;;;;;43.50;38.00;;;;;;;;2;261074393;261074393;-84
2022/03/30 00:23:24;;;;;;;;;37.00;34.00;;;;;;;;2;261078666;261078666;-84
2022/03/30 00:32:25;;;;;;;;;40.00;36.00;;;;;;;;2;261075061;261075061;-84
2022/03/30 00:40:40;;;;;;;;;44.00;38.50;;;;;;;;2;261072987;261072987;-84
2022/03/30 00:49:41;;;;;;;;;39.50;34.00;;;;;;;;2;261072760;261072760;-84
2022/03/30 00:57:57;;;;;;;;;43.00;35.50;;;;;;;;2;261078825;261078825;-84
2022/03/30 01:06:58;;;;;;;;;46.50;36.00;;;;;;;;2;261077700;261077700;-84
2022/03/30 01:15:14;;;;;;;;;50.00;39.00;;;;;;;;2;261076052;261076052;-84
2022/03/30 01:24:14;;;;;;;;;31.50;29.50;;;;;;;;2;261078414;261078414;-84
2022/03/30 01:32:30;;;;;;;;;58.50;38.50;;;;;;;;2;261077743;261077743;-84
2022/03/30 01:41:30;;;;;;;;;58.00;43.00;;;;;;;;2;261076878;261076878;-84
2022/03/30 01:49:46;;;;;;;;;53.50;31.50;;;;;;;;2;261074250;261074250;-84
2022/03/30 01:58:47;;;;;;;;;46.50;40.50;;;;;;;;2;261073612;261073612;-84
2022/03/30 02:07:03;;;;;;;;;53.50;38.50;;;;;;;;2;261077288;261077288;-84
2022/03/30 02:16:03;;;;;;;;;44.50;37.50;;;;;;;;2;261075172;261075172;-84
2022/03/30 02:24:18;;;;;;;;;53.50;35.00;;;;;;;;2;261080314;261080314;-84
2022/03/30 02:33:19;;;;;;;;;40.00;36.00;;;;;;;;2;261076847;261076847;-84
2022/03/30 02:41:34;;;;;;;;;46.50;39.50;;;;;;;;2;261076694;261076694;-84
2022/03/30 02:50:35;;;;;;;;;49.00;35.50;;;;;;;;2;261078704;261078704;-84
2022/03/30 02:58:51;;;;;;;;;39.00;34.00;;;;;;;;2;261079079;261079079;-84
2022/03/30 03:07:51;;;;;;;;;48.00;40.00;;;;;;;;2;261078040;261078040;-84
2022/03/30 03:16:06;;;;;;;;;61.00;43.00;;;;;;;;2;261078358;261078358;-84
2022/03/30 03:25:07;;;;;;;;;58.50;46.50;;;;;;;;2;261074904;261074904;-84
2022/03/30 03:33:23;;;;;;;;;64.00;43.50;;;;;;;;2;261077719;261077719;-84
2022/03/30 03:42:23;;;;;;;;;50.50;42.00;;;;;;;;2;261077783;261077783;-84
2022/03/30 03:50:39;;;;;;;;;68.00;45.50;;;;;;;;2;261077190;261077190;-84
2022/03/30 03:59:39;;;;;;;;;63.00;52.00;;;;;;;;2;261077059;261077059;-84
2022/03/30 04:07:55;;;;;;;;;51.50;44.00;;;;;;;;2;261079950;261079950;-84
2022/03/30 04:16:55;;;;;;;;;60.50;47.50;;;;;;;;2;261077472;261077472;-84
2022/03/30 04:25:11;;;;;;;;;41.00;34.00;;;;;;;;2;261076544;261076544;-84
2022/03/30 04:34:11;;;;;;;;;74.50;48.00;;;;;;;;2;261079378;261079378;-84
2022/03/30 04:42:27;;;;;;;;;56.00;46.00;;;;;;;;2;261078937;261078937;-85
2022/03/30 04:51:29;;;;;;;;;67.50;45.50;;;;;;;;2;261078231;261078231;-84
2022/03/30 04:59:44;;;;;;;;;87.00;61.50;;;;;;;;2;261077057;261077057;-85
2022/03/30 05:08:46;;;;;;;;;54.00;46.00;;;;;;;;2;261077915;261077915;-85
2022/03/30 05:17:02;;;;;;;;;57.00;43.50;;;;;;;;2;261084621;261084621;-84
2022/03/30 05:26:03;;;;;;;;;65.50;52.00;;;;;;;;2;261076432;261076432;-84
2022/03/30 05:34:19;;;;;;;;;58.00;47.00;;;;;;;;2;261075979;261075979;-85
2022/03/30 05:43:21;;;;;;;;;55.50;44.50;;;;;;;;2;261078078;261078078;-85
2022/03/30 05:51:36;;;;;;;;;66.50;42.50;;;;;;;;2;261078238;261078238;-85
2022/03/30 06:00:37;;;;;;;;;62.50;49.50;;;;;;;;2;261078965;261078965;-85
2022/03/30 06:08:52;;;;;;;;;61.50;50.50;;;;;;;;2;261075494;261075494;-85
2022/03/30 06:17:54;;;;;;;;;59.00;49.00;;;;;;;;2;261075609;261075609;-85
2022/03/30 06:26:09;;;;;;;;;68.00;48.50;;;;;;;;2;261079407;261079407;-85
2022/03/30 06:35:10;;;;;;;;;63.00;49.00;;;;;;;;2;261077391;261077391;-85
2022/03/30 06:43:25;;;;;;;;;57.50;42.00;;;;;;;;2;261078365;261078365;-85
2022/03/30 06:52:26;;;;;;;;;68.50;46.00;;;;;;;;2;261076799;261076799;-86
2022/03/30 07:00:41;;;;;;;;;48.50;40.00;;;;;;;;2;261077456;261077456;-85
2022/03/30 07:18:16;;;;;;;;;62.50;44.00;;;;;;;;2;261082155;261082155;-85
2022/03/30 07:27:17;;;;;;;;;54.00;45.00;;;;;;;;2;261078508;261078508;-85
2022/03/30 07:35:32;;;;;;;;;61.00;48.50;;;;;;;;2;261077024;261077024;-85
2022/03/30 07:44:33;;;;;;;;;58.00;47.00;;;;;;;;2;261077398;261077398;-86
2022/03/30 07:52:48;;;;;;;;;55.50;46.50;;;;;;;;2;261079256;261079256;-87
2022/03/30 08:02:07;;;;;;;;;59.00;48.50;;;;;;;;2;261075914;261075914;-86
2022/03/30 08:10:22;;;;;;;;;60.00;42.50;;;;;;;;2;261081606;261081606;-87
2022/03/30 08:19:25;;;;;;;;;44.00;37.50;;;;;;;;2;261078755;261078755;-87
2022/03/30 08:27:46;;;;;;;;;44.00;38.50;;;;;;;;2;261082910;261082910;-86
2022/03/30 08:37:30;;;;;;;;;51.50;38.50;;;;;;;;2;261077941;261077941;-87
2022/03/30 08:56:36;;;;;;;;;65.00;43.00;;;;;;;;2;261081181;261081181;-85
2022/03/30 09:05:19;;;;;;;;;;;;;;;;;;;;;
2022/03/30 09:14:31;;;;;;;;;;;;;;;;;;;;;
2022/03/30 09:23:00;;;;;;;;;;;;;;;;;;;;;
2022/03/30 09:32:30;;;;;;;;;67.50;49.00;;;;;;;;2;261107417;261107417;-85
2022/03/30 09:40:55;;;;;;;;;76.00;46.50;;;;;;;;2;261082724;261082724;-83
2022/03/30 09:49:59;;;;;;;;;58.50;45.00;;;;;;;;2;261079367;261079367;-85
2022/03/30 09:58:37;;;;;;;;;66.50;41.00;;;;;;;;2;261078425;261078425;-84
2022/03/30 10:07:45;;;;;;;;;51.50;37.50;;;;;;;;2;261077606;261077606;-85
2022/03/30 10:26:07;;;;;;;;;;;;;;;;;;;;;
2022/03/30 10:53:29;;;;;;;;;65.50;47.50;;;;;;;;2;261080191;261080191;-87
2022/03/30 11:02:40;;;;;;;;;56.50;38.50;;;;;;;;2;261079341;261079341;-88
2022/03/30 11:10:55;;;;;;;;;52.00;44.00;;;;;;;;2;261081915;261081915;-86
2022/03/30 11:19:57;;;;;;;;;70.50;47.00;;;;;;;;2;261077333;261077333;-85
2022/03/30 11:28:13;;;;;;;;;40.50;36.00;;;;;;;;2;261078051;261078051;-86
2022/03/30 11:37:13;;;;;;;;;65.50;41.00;;;;;;;;2;261082277;261082277;-84
2022/03/30 11:45:29;;;;;;;;;62.00;44.00;;;;;;;;2;261079922;261079922;-85
2022/03/30 11:54:29;;;;;;;;;48.50;34.50;;;;;;;;2;261076567;261076567;-87
2022/03/30 12:02:45;;;;;;;;;58.00;43.00;;;;;;;;2;261077338;261077338;-86
2022/03/30 12:11:46;;;;;;;;;39.50;35.50;;;;;;;;2;261077761;261077761;-86
2022/03/30 12:20:03;;;;;;;;;46.50;38.50;;;;;;;;2;261075440;261075440;-86
2022/03/30 12:29:05;;;;;;;;;38.00;34.50;;;;;;;;2;261077737;261077737;-84
2022/03/30 12:37:24;;;;;;;;;35.00;32.50;;;;;;;;2;261078456;261078456;-84
2022/03/30 12:46:28;;;;;;;;;60.50;45.50;;;;;;;;2;261078373;261078373;-89
2022/03/30 12:54:44;;;;;;;;;45.50;34.00;;;;;;;;2;261076837;261076837;-86
2022/03/30 13:03:46;;;;;;;;;69.00;44.00;;;;;;;;2;261080516;261080516;-88
2022/03/30 13:12:01;;;;;;;;;49.00;38.00;;;;;;;;2;261079827;261079827;-87
2022/03/30 13:21:06;;;;;;;;;40.00;36.00;;;;;;;;2;261080356;261080356;-86
2022/03/30 13:29:22;;;;;;;;;43.00;36.00;;;;;;;;2;261081522;261081522;-87
2022/03/30 13:38:24;;;;;;;;;55.00;38.00;;;;;;;;2;261076575;261076575;-84
2022/03/30 13:46:39;;;;;;;;;39.50;28.50;;;;;;;;2;261078352;261078352;-83
2022/03/30 13:55:40;;;;;;;;;49.50;34.50;;;;;;;;2;261075890;261075890;-83
2022/03/30 14:03:55;;;;;;;;;43.50;35.50;;;;;;;;2;261076841;261076841;-85
2022/03/30 14:12:58;;;;;;;;;45.50;36.50;;;;;;;;2;261081336;261081336;-85
2022/03/30 14:21:14;;;;;;;;;39.50;34.00;;;;;;;;2;261078851;261078851;-85
2022/03/30 14:30:16;;;;;;;;;41.50;37.00;;;;;;;;2;261075521;261075521;-86
2022/03/30 14:38:31;;;;;;;;;55.50;33.50;;;;;;;;2;261075716;261075716;-86
2022/03/30 14:47:32;;;;;;;;;29.00;28.50;;;;;;;;2;261076159;261076159;-84
2022/03/30 14:55:47;;;;;;;;;33.00;31.00;;;;;;;;2;261076016;261076016;-85
2022/03/30 15:04:48;;;;;;;;;34.50;32.50;;;;;;;;2;261075040;261075040;-85
2022/03/30 15:13:03;;;;;;;;;44.50;31.50;;;;;;;;2;261078148;261078148;-86
2022/03/30 15:22:04;;;;;;;;;31.50;30.00;;;;;;;;2;261076874;261076874;-85
2022/03/30 15:30:19;;;;;;;;;35.00;26.00;;;;;;;;2;261079624;261079624;-85
2022/03/30 15:39:20;;;;;;;;;40.00;30.00;;;;;;;;2;261077596;261077596;-85
2022/03/30 15:47:36;;;;;;;;;37.00;34.00;;;;;;;;2;261079734;261079734;-86
2022/03/30 15:56:37;;;;;;;;;39.00;27.50;;;;;;;;2;261075975;261075975;-86
2022/03/30 16:04:52;;;;;;;;;43.50;34.00;;;;;;;;2;261077703;261077703;-84
2022/03/30 16:13:53;;;;;;;;;49.50;38.00;;;;;;;;2;261080037;261080037;-84
2022/03/30 16:22:08;;;;;;;;;48.00;33.00;;;;;;;;2;261081363;261081363;-85
2022/03/30 16:31:09;;;;;;;;;48.50;34.50;;;;;;;;2;261077133;261077133;-86
2022/03/30 16:39:27;;;;;;;;;40.00;35.50;;;;;;;;2;261078111;261078111;-86
2022/03/30 16:48:28;;;;;;;;;47.50;34.50;;;;;;;;2;261076168;261076168;-85
2022/03/30 16:56:44;;;;;;;;;48.50;34.50;;;;;;;;2;261074994;261074994;-87
2022/03/30 17:05:44;;;;;;;;;46.00;39.50;;;;;;;;2;261077191;261077191;-90
2022/03/30 17:14:01;;;;;;;;;60.50;40.00;;;;;;;;2;261075388;261075388;-91
2022/03/30 17:23:01;;;;;;;;;59.50;37.50;;;;;;;;2;261074795;261074795;-94
2022/03/30 17:31:17;;;;;;;;;42.50;37.50;;;;;;;;2;261070727;261070727;-92
2022/03/30 17:40:21;;;;;;;;;55.00;46.00;;;;;;;;2;261072105;261072105;-94
2022/03/30 17:57:58;;;;;;;;;60.00;39.50;;;;;;;;2;261072811;261072811;-87
2022/03/30 18:06:14;;;;;;;;;57.00;44.50;;;;;;;;2;261075858;261075858;-89
2022/03/30 18:15:15;;;;;;;;;46.50;33.00;;;;;;;;2;261075999;261075999;-88
2022/03/30 18:23:30;;;;;;;;;39.00;34.00;;;;;;;;2;261078806;261078806;-89
2022/03/30 18:32:31;;;;;;;;;50.50;35.50;;;;;;;;2;261079010;261079010;-86
2022/03/30 18:40:50;;;;;;;;;52.00;40.50;;;;;;;;2;261077640;261077640;-86
2022/03/30 18:49:51;;;;;;;;;34.00;31.00;;;;;;;;2;261077284;261077284;-86
2022/03/30 18:58:06;;;;;;;;;46.00;39.50;;;;;;;;2;261077762;261077762;-86
2022/03/30 19:07:06;;;;;;;;;50.50;41.50;;;;;;;;2;261078632;261078632;-87
2022/03/30 19:15:22;;;;;;;;;39.50;32.50;;;;;;;;2;261078203;261078203;-92
2022/03/30 19:24:22;;;;;;;;;41.00;37.00;;;;;;;;2;261076827;261076827;-86
2022/03/30 19:32:38;;;;;;;;;48.00;41.00;;;;;;;;2;261076278;261076278;-86
2022/03/30 19:41:38;;;;;;;;;42.00;29.00;;;;;;;;2;261077184;261077184;-90
2022/03/30 19:49:54;;;;;;;;;46.50;33.00;;;;;;;;2;261075899;261075899;-89
2022/03/30 19:58:54;;;;;;;;;30.50;30.00;;;;;;;;2;261075654;261075654;-87
2022/03/30 20:07:10;;;;;;;;;37.50;25.50;;;;;;;;2;261079151;261079151;-88
2022/03/30 20:16:11;;;;;;;;;47.00;33.50;;;;;;;;2;261076360;261076360;-89
2022/03/30 20:24:27;;;;;;;;;50.00;36.50;;;;;;;;2;261077070;261077070;-89
2022/03/30 20:33:28;;;;;;;;;55.50;37.00;;;;;;;;2;261075295;261075295;-88
2022/03/30 20:41:43;;;;;;;;;49.50;37.00;;;;;;;;2;261080717;261080717;-87
2022/03/30 20:50:45;;;;;;;;;37.00;31.50;;;;;;;;2;261075658;261075658;-87
2022/03/30 20:59:01;;;;;;;;;37.50;34.00;;;;;;;;2;261078780;261078780;-87
2022/03/30 21:08:01;;;;;;;;;54.00;33.50;;;;;;;;2;261073872;261073872;-87
2022/03/30 21:16:17;;;;;;;;;49.50;42.50;;;;;;;;2;261077190;261077190;-86
2022/03/30 21:25:17;;;;;;;;;52.50;41.00;;;;;;;;2;261080637;261080637;-86
2022/03/30 21:33:33;;;;;;;;;60.50;38.50;;;;;;;;2;261074958;261074958;-86
2022/03/30 21:42:34;;;;;;;;;40.50;34.00;;;;;;;;2;261075703;261075703;-87
2022/03/30 21:50:49;;;;;;;;;47.50;36.00;;;;;;;;2;261075401;261075401;-87
2022/03/30 21:59:50;;;;;;;;;49.00;40.00;;;;;;;;2;261076786;261076786;-87
2022/03/30 22:08:07;;;;;;;;;47.00;35.00;;;;;;;;2;261079623;261079623;-87
2022/03/30 22:17:08;;;;;;;;;39.50;32.50;;;;;;;;2;261078298;261078298;-87
2022/03/30 22:25:23;;;;;;;;;51.50;34.50;;;;;;;;2;261076367;261076367;-87
2022/03/30 22:42:59;;;;;;;;;47.50;41.00;;;;;;;;2;261075725;261075725;-89
2022/03/30 22:51:59;;;;;;;;;49.50;38.50;;;;;;;;2;261078433;261078433;-89
2022/03/30 23:00:15;;;;;;;;;29.00;28.00;;;;;;;;2;261077541;261077541;-89
2022/03/30 23:09:15;;;;;;;;;32.00;31.00;;;;;;;;2;261076119;261076119;-89
2022/03/30 23:17:31;;;;;;;;;42.50;37.50;;;;;;;;2;261076167;261076167;-89
2022/03/30 23:26:31;;;;;;;;;49.50;34.50;;;;;;;;2;261078007;261078007;-90
2022/03/30 23:34:46;;;;;;;;;51.50;28.50;;;;;;;;2;261076546;261076546;-88
2022/03/30 23:43:47;;;;;;;;;33.00;31.50;;;;;;;;2;261080099;261080099;-89
2022/03/30 23:52:03;;;;;;;;;36.00;23.00;;;;;;;;2;261077215;261077215;-89
